sensor_id;sensor_type;location;lat;lon;timestamp;temperature;humidity
666;DHT22;315;48.738;9.126;2023-02-28T00:01:27;-1.00;99.90
666;DHT22;315;48.738;9.126;2023-02-28T00:03:53;-1.00;99.90
666;DHT22;315;48.738;9.126;2023-02-28T00:06:18;-1.10;99.90
666;DHT22;315;48.738;9.126;2023-02-28T00:08:45;-1.10;99.90
666;DHT22;315;48.738;9.126;2023-02-28T00:11:13;-1.10;99.90
666;DHT22;315;48.738;9.126;2023-02-28T00:13:41;-1.20;99.90
666;DHT22;315;48.738;9.126;2023-02-28T00:16:09;-1.20;99.90
666;DHT22;315;48.738;9.126;2023-02-28T00:18:35;-1.10;99.90
666;DHT22;315;48.738;9.126;2023-02-28T00:21:02;-1.20;99.90
666;DHT22;315;48.738;9.126;2023-02-28T00:23:27;-1.20;99.90
666;DHT22;315;48.738;9.126;2023-02-28T00:25:53;-1.20;99.90
666;DHT22;315;48.738;9.126;2023-02-28T00:28:19;-1.20;99.90
666;DHT22;315;48.738;9.126;2023-02-28T00:30:44;-1.30;99.90
666;DHT22;315;48.738;9.126;2023-02-28T00:33:10;-1.30;99.90
666;DHT22;315;48.738;9.126;2023-02-28T00:35:36;-1.30;99.90
666;DHT22;315;48.738;9.126;2023-02-28T00:38:01;-1.30;99.90
666;DHT22;315;48.738;9.126;2023-02-28T00:40:27;-1.30;99.90
666;DHT22;315;48.738;9.126;2023-02-28T00:42:53;-1.40;99.90
666;DHT22;315;48.738;9.126;2023-02-28T00:45:18;-1.40;99.90
666;DHT22;315;48.738;9.126;2023-02-28T00:47:44;-1.30;99.90
666;DHT22;315;48.738;9.126;2023-02-28T00:50:12;-1.40;99.90
666;DHT22;315;48.738;9.126;2023-02-28T00:52:37;-1.30;99.90
666;DHT22;315;48.738;9.126;2023-02-28T00:55:04;-1.40;99.90
666;DHT22;315;48.738;9.126;2023-02-28T00:57:29;-1.40;99.90
666;DHT22;315;48.738;9.126;2023-02-28T00:59:55;-1.40;99.90
666;DHT22;315;48.738;9.126;2023-02-28T01:02:22;-1.30;99.90
666;DHT22;315;48.738;9.126;2023-02-28T01:04:47;-1.40;99.90
666;DHT22;315;48.738;9.126;2023-02-28T01:07:13;-1.40;99.90
666;DHT22;315;48.738;9.126;2023-02-28T01:09:40;-1.40;99.90
666;DHT22;315;48.738;9.126;2023-02-28T01:12:07;-1.30;99.90
666;DHT22;315;48.738;9.126;2023-02-28T01:14:32;-1.40;99.90
666;DHT22;315;48.738;9.126;2023-02-28T01:16:58;-1.50;99.90
666;DHT22;315;48.738;9.126;2023-02-28T01:19:23;-1.50;99.90
666;DHT22;315;48.738;9.126;2023-02-28T01:21:49;-1.40;99.90
666;DHT22;315;48.738;9.126;2023-02-28T01:24:14;-1.50;99.90
666;DHT22;315;48.738;9.126;2023-02-28T01:26:40;-1.50;99.90
666;DHT22;315;48.738;9.126;2023-02-28T01:29:05;-1.50;99.90
666;DHT22;315;48.738;9.126;2023-02-28T01:31:31;-1.50;99.90
666;DHT22;315;48.738;9.126;2023-02-28T01:33:56;-1.50;99.90
666;DHT22;315;48.738;9.126;2023-02-28T01:36:24;-1.60;99.90
666;DHT22;315;48.738;9.126;2023-02-28T01:38:49;-1.60;99.90
666;DHT22;315;48.738;9.126;2023-02-28T01:41:20;-1.60;99.90
666;DHT22;315;48.738;9.126;2023-02-28T01:46:12;-1.60;99.90
666;DHT22;315;48.738;9.126;2023-02-28T01:48:41;-1.60;99.90
666;DHT22;315;48.738;9.126;2023-02-28T01:51:33;-1.60;99.90
666;DHT22;315;48.738;9.126;2023-02-28T01:54:05;-1.60;99.90
666;DHT22;315;48.738;9.126;2023-02-28T01:56:39;-1.60;99.90
666;DHT22;315;48.738;9.126;2023-02-28T01:59:06;-1.60;99.90
666;DHT22;315;48.738;9.126;2023-02-28T02:01:32;-1.60;99.90
666;DHT22;315;48.738;9.126;2023-02-28T02:03:59;-1.60;99.90
666;DHT22;315;48.738;9.126;2023-02-28T02:06:34;-1.60;99.90
666;DHT22;315;48.738;9.126;2023-02-28T02:09:01;-1.60;99.90
666;DHT22;315;48.738;9.126;2023-02-28T02:11:27;-1.50;99.90
666;DHT22;315;48.738;9.126;2023-02-28T02:19:32;-1.50;99.90
666;DHT22;315;48.738;9.126;2023-02-28T02:28:10;-1.50;99.90
666;DHT22;315;48.738;9.126;2023-02-28T02:33:40;-1.50;99.90
666;DHT22;315;48.738;9.126;2023-02-28T02:36:19;-1.50;99.90
666;DHT22;315;48.738;9.126;2023-02-28T02:41:52;-1.50;99.90
666;DHT22;315;48.738;9.126;2023-02-28T02:44:24;-1.40;99.90
666;DHT22;315;48.738;9.126;2023-02-28T02:46:58;-1.40;99.90
666;DHT22;315;48.738;9.126;2023-02-28T02:49:30;-1.40;99.90
666;DHT22;315;48.738;9.126;2023-02-28T02:51:58;-1.40;99.90
666;DHT22;315;48.738;9.126;2023-02-28T02:54:33;-1.40;99.90
666;DHT22;315;48.738;9.126;2023-02-28T02:57:03;-1.40;99.90
666;DHT22;315;48.738;9.126;2023-02-28T02:59:32;-1.30;99.90
666;DHT22;315;48.738;9.126;2023-02-28T03:02:02;-1.30;99.90
666;DHT22;315;48.738;9.126;2023-02-28T03:04:32;-1.30;99.90
666;DHT22;315;48.738;9.126;2023-02-28T03:06:59;-1.20;99.90
666;DHT22;315;48.738;9.126;2023-02-28T03:09:25;-1.20;99.90
666;DHT22;315;48.738;9.126;2023-02-28T03:11:53;-1.20;99.90
666;DHT22;315;48.738;9.126;2023-02-28T03:14:44;-1.20;99.90
666;DHT22;315;48.738;9.126;2023-02-28T03:17:51;-1.30;99.90
666;DHT22;315;48.738;9.126;2023-02-28T03:23:48;-1.20;99.90
666;DHT22;315;48.738;9.126;2023-02-28T03:26:20;-1.20;99.90
666;DHT22;315;48.738;9.126;2023-02-28T03:31:44;-1.20;99.90
666;DHT22;315;48.738;9.126;2023-02-28T03:34:15;-1.20;99.90
666;DHT22;315;48.738;9.126;2023-02-28T03:36:53;-1.20;99.90
666;DHT22;315;48.738;9.126;2023-02-28T03:39:40;-1.20;99.90
666;DHT22;315;48.738;9.126;2023-02-28T03:42:20;-1.20;99.90
666;DHT22;315;48.738;9.126;2023-02-28T03:47:24;-1.30;99.90
666;DHT22;315;48.738;9.126;2023-02-28T03:52:34;-1.30;99.90
666;DHT22;315;48.738;9.126;2023-02-28T03:55:04;-1.20;99.90
666;DHT22;315;48.738;9.126;2023-02-28T03:58:20;-1.20;99.90
666;DHT22;315;48.738;9.126;2023-02-28T04:00:37;-1.20;99.90
666;DHT22;315;48.738;9.126;2023-02-28T04:03:04;-1.20;99.90
666;DHT22;315;48.738;9.126;2023-02-28T04:05:30;-1.20;99.90
666;DHT22;315;48.738;9.126;2023-02-28T04:08:06;-1.20;99.90
666;DHT22;315;48.738;9.126;2023-02-28T04:10:32;-1.20;99.90
666;DHT22;315;48.738;9.126;2023-02-28T04:12:58;-1.10;99.90
666;DHT22;315;48.738;9.126;2023-02-28T04:15:23;-1.10;99.90
666;DHT22;315;48.738;9.126;2023-02-28T04:17:50;-1.10;99.90
666;DHT22;315;48.738;9.126;2023-02-28T04:20:16;-1.00;99.90
666;DHT22;315;48.738;9.126;2023-02-28T04:22:41;-1.00;99.90
666;DHT22;315;48.738;9.126;2023-02-28T04:25:07;-1.00;99.90
666;DHT22;315;48.738;9.126;2023-02-28T04:27:33;-0.90;99.90
666;DHT22;315;48.738;9.126;2023-02-28T04:29:59;-0.90;99.90
666;DHT22;315;48.738;9.126;2023-02-28T04:32:24;-0.90;99.90
666;DHT22;315;48.738;9.126;2023-02-28T04:34:50;-0.90;99.90
666;DHT22;315;48.738;9.126;2023-02-28T04:37:15;-0.90;99.90
666;DHT22;315;48.738;9.126;2023-02-28T04:39:41;-0.90;99.90
666;DHT22;315;48.738;9.126;2023-02-28T04:42:09;-0.90;99.90
666;DHT22;315;48.738;9.126;2023-02-28T04:44:34;-0.90;99.90
666;DHT22;315;48.738;9.126;2023-02-28T04:47:00;-0.80;99.90
666;DHT22;315;48.738;9.126;2023-02-28T04:49:25;-0.80;99.90
666;DHT22;315;48.738;9.126;2023-02-28T04:51:51;-0.80;99.90
666;DHT22;315;48.738;9.126;2023-02-28T04:54:18;-0.80;99.90
666;DHT22;315;48.738;9.126;2023-02-28T04:56:43;-0.90;99.90
666;DHT22;315;48.738;9.126;2023-02-28T04:59:09;-0.80;99.90
666;DHT22;315;48.738;9.126;2023-02-28T05:01:34;-0.80;99.90
666;DHT22;315;48.738;9.126;2023-02-28T05:04:03;-0.80;99.90
666;DHT22;315;48.738;9.126;2023-02-28T05:06:30;-0.80;99.90
666;DHT22;315;48.738;9.126;2023-02-28T05:08:57;-0.80;99.90
666;DHT22;315;48.738;9.126;2023-02-28T05:11:28;-0.80;99.90
666;DHT22;315;48.738;9.126;2023-02-28T05:13:54;-0.80;99.90
666;DHT22;315;48.738;9.126;2023-02-28T05:16:20;-0.80;99.90
666;DHT22;315;48.738;9.126;2023-02-28T05:18:49;-0.70;99.90
666;DHT22;315;48.738;9.126;2023-02-28T05:21:41;-0.70;99.90
666;DHT22;315;48.738;9.126;2023-02-28T05:24:13;-0.70;99.90
666;DHT22;315;48.738;9.126;2023-02-28T05:26:41;-0.80;99.90
666;DHT22;315;48.738;9.126;2023-02-28T05:29:07;-0.80;99.90
666;DHT22;315;48.738;9.126;2023-02-28T05:31:33;-0.80;99.90
666;DHT22;315;48.738;9.126;2023-02-28T05:33:58;-0.80;99.90
666;DHT22;315;48.738;9.126;2023-02-28T05:36:24;-0.80;99.90
666;DHT22;315;48.738;9.126;2023-02-28T05:38:50;-0.80;99.90
666;DHT22;315;48.738;9.126;2023-02-28T05:41:17;-0.70;99.90
666;DHT22;315;48.738;9.126;2023-02-28T05:43:44;-0.70;99.90
666;DHT22;315;48.738;9.126;2023-02-28T05:46:11;-0.70;99.90
666;DHT22;315;48.738;9.126;2023-02-28T05:48:39;-0.60;99.90
666;DHT22;315;48.738;9.126;2023-02-28T05:51:05;-0.60;99.90
666;DHT22;315;48.738;9.126;2023-02-28T05:53:31;-0.60;99.90
666;DHT22;315;48.738;9.126;2023-02-28T05:55:57;-0.60;99.90
666;DHT22;315;48.738;9.126;2023-02-28T05:58:23;-0.60;99.90
666;DHT22;315;48.738;9.126;2023-02-28T06:00:48;-0.60;99.90
666;DHT22;315;48.738;9.126;2023-02-28T06:03:14;-0.60;99.90
666;DHT22;315;48.738;9.126;2023-02-28T06:05:40;-0.60;99.90
666;DHT22;315;48.738;9.126;2023-02-28T06:08:05;-0.70;99.90
666;DHT22;315;48.738;9.126;2023-02-28T06:10:33;-0.70;99.90
666;DHT22;315;48.738;9.126;2023-02-28T06:13:02;-0.70;99.90
666;DHT22;315;48.738;9.126;2023-02-28T06:15:29;-0.70;99.90
666;DHT22;315;48.738;9.126;2023-02-28T06:17:55;-0.70;99.90
666;DHT22;315;48.738;9.126;2023-02-28T06:20:22;-0.60;99.90
666;DHT22;315;48.738;9.126;2023-02-28T06:22:48;-0.60;99.90
666;DHT22;315;48.738;9.126;2023-02-28T06:25:15;-0.60;99.90
666;DHT22;315;48.738;9.126;2023-02-28T06:27:41;-0.60;99.90
666;DHT22;315;48.738;9.126;2023-02-28T06:30:07;-0.60;99.90
666;DHT22;315;48.738;9.126;2023-02-28T06:32:32;-0.60;99.90
666;DHT22;315;48.738;9.126;2023-02-28T06:34:58;-0.60;99.90
666;DHT22;315;48.738;9.126;2023-02-28T06:37:23;-0.50;99.90
666;DHT22;315;48.738;9.126;2023-02-28T06:39:51;-0.50;99.90
666;DHT22;315;48.738;9.126;2023-02-28T06:42:17;-0.50;99.90
666;DHT22;315;48.738;9.126;2023-02-28T06:44:42;-0.50;99.90
666;DHT22;315;48.738;9.126;2023-02-28T06:47:08;-0.60;99.90
666;DHT22;315;48.738;9.126;2023-02-28T06:49:35;-0.60;99.90
666;DHT22;315;48.738;9.126;2023-02-28T06:52:01;-0.50;99.90
666;DHT22;315;48.738;9.126;2023-02-28T06:54:26;-0.40;99.90
666;DHT22;315;48.738;9.126;2023-02-28T06:56:52;-0.50;99.90
666;DHT22;315;48.738;9.126;2023-02-28T06:59:19;-0.40;99.90
666;DHT22;315;48.738;9.126;2023-02-28T07:01:45;-0.40;99.90
666;DHT22;315;48.738;9.126;2023-02-28T07:04:11;-0.40;99.90
666;DHT22;315;48.738;9.126;2023-02-28T07:06:38;-0.40;99.90
666;DHT22;315;48.738;9.126;2023-02-28T07:09:04;-0.40;99.90
666;DHT22;315;48.738;9.126;2023-02-28T07:11:30;-0.40;99.90
666;DHT22;315;48.738;9.126;2023-02-28T07:13:56;-0.40;99.90
666;DHT22;315;48.738;9.126;2023-02-28T07:16:23;-0.40;99.90
666;DHT22;315;48.738;9.126;2023-02-28T07:18:49;-0.30;99.90
666;DHT22;315;48.738;9.126;2023-02-28T07:21:15;-0.30;99.90
666;DHT22;315;48.738;9.126;2023-02-28T07:23:41;-0.30;99.90
666;DHT22;315;48.738;9.126;2023-02-28T07:26:11;-0.30;99.90
666;DHT22;315;48.738;9.126;2023-02-28T07:28:43;-0.30;99.90
666;DHT22;315;48.738;9.126;2023-02-28T07:31:10;-0.40;99.90
666;DHT22;315;48.738;9.126;2023-02-28T07:33:36;-0.30;99.90
666;DHT22;315;48.738;9.126;2023-02-28T07:36:04;-0.20;99.90
666;DHT22;315;48.738;9.126;2023-02-28T07:38:30;-0.20;99.90
666;DHT22;315;48.738;9.126;2023-02-28T07:40:55;-0.10;99.90
666;DHT22;315;48.738;9.126;2023-02-28T07:43:21;-0.10;99.90
666;DHT22;315;48.738;9.126;2023-02-28T07:45:46;-0.10;99.90
666;DHT22;315;48.738;9.126;2023-02-28T07:48:12;-0.20;99.90
666;DHT22;315;48.738;9.126;2023-02-28T07:50:37;-0.20;99.90
666;DHT22;315;48.738;9.126;2023-02-28T07:53:03;-0.10;99.90
666;DHT22;315;48.738;9.126;2023-02-28T07:55:29;-0.10;99.90
666;DHT22;315;48.738;9.126;2023-02-28T07:57:57;-0.10;99.90
666;DHT22;315;48.738;9.126;2023-02-28T08:00:23;-0.10;99.90
666;DHT22;315;48.738;9.126;2023-02-28T08:02:49;0.00;99.90
666;DHT22;315;48.738;9.126;2023-02-28T08:05:14;0.00;99.90
666;DHT22;315;48.738;9.126;2023-02-28T08:07:40;0.10;99.90
666;DHT22;315;48.738;9.126;2023-02-28T08:10:06;0.20;99.90
666;DHT22;315;48.738;9.126;2023-02-28T08:12:32;0.30;99.90
666;DHT22;315;48.738;9.126;2023-02-28T08:14:57;0.30;99.90
666;DHT22;315;48.738;9.126;2023-02-28T08:17:23;0.30;99.90
666;DHT22;315;48.738;9.126;2023-02-28T08:19:49;0.30;99.90
666;DHT22;315;48.738;9.126;2023-02-28T08:22:14;0.30;99.90
666;DHT22;315;48.738;9.126;2023-02-28T08:24:41;0.40;99.90
666;DHT22;315;48.738;9.126;2023-02-28T08:27:08;0.40;99.90
666;DHT22;315;48.738;9.126;2023-02-28T08:29:33;0.40;99.90
666;DHT22;315;48.738;9.126;2023-02-28T08:31:59;0.50;99.90
666;DHT22;315;48.738;9.126;2023-02-28T08:34:24;0.60;99.90
666;DHT22;315;48.738;9.126;2023-02-28T08:36:50;0.50;99.90
666;DHT22;315;48.738;9.126;2023-02-28T08:39:15;0.70;99.90
666;DHT22;315;48.738;9.126;2023-02-28T08:41:42;0.60;99.90
666;DHT22;315;48.738;9.126;2023-02-28T08:44:09;0.50;99.90
666;DHT22;315;48.738;9.126;2023-02-28T08:46:34;0.50;99.90
666;DHT22;315;48.738;9.126;2023-02-28T08:49:00;0.60;99.90
666;DHT22;315;48.738;9.126;2023-02-28T08:51:27;0.60;99.90
666;DHT22;315;48.738;9.126;2023-02-28T08:53:58;0.60;99.90
666;DHT22;315;48.738;9.126;2023-02-28T08:56:25;0.60;99.90
666;DHT22;315;48.738;9.126;2023-02-28T08:58:51;0.50;99.90
666;DHT22;315;48.738;9.126;2023-02-28T09:01:22;0.40;99.90
666;DHT22;315;48.738;9.126;2023-02-28T09:03:50;0.50;99.90
666;DHT22;315;48.738;9.126;2023-02-28T09:06:18;0.60;99.90
666;DHT22;315;48.738;9.126;2023-02-28T09:08:44;0.70;99.90
666;DHT22;315;48.738;9.126;2023-02-28T09:11:10;0.70;99.90
666;DHT22;315;48.738;9.126;2023-02-28T09:13:37;0.80;99.90
666;DHT22;315;48.738;9.126;2023-02-28T09:16:04;0.80;99.90
666;DHT22;315;48.738;9.126;2023-02-28T09:18:30;0.80;99.90
666;DHT22;315;48.738;9.126;2023-02-28T09:20:57;0.70;99.90
666;DHT22;315;48.738;9.126;2023-02-28T09:23:23;0.80;99.90
666;DHT22;315;48.738;9.126;2023-02-28T09:25:54;0.80;99.90
666;DHT22;315;48.738;9.126;2023-02-28T09:28:20;0.90;99.90
666;DHT22;315;48.738;9.126;2023-02-28T09:30:48;0.80;99.90
666;DHT22;315;48.738;9.126;2023-02-28T09:33:14;0.80;99.90
666;DHT22;315;48.738;9.126;2023-02-28T09:35:40;0.80;99.90
666;DHT22;315;48.738;9.126;2023-02-28T09:38:06;0.80;99.90
666;DHT22;315;48.738;9.126;2023-02-28T09:40:51;0.90;99.90
666;DHT22;315;48.738;9.126;2023-02-28T09:43:18;0.80;99.90
666;DHT22;315;48.738;9.126;2023-02-28T09:46:35;0.80;99.90
666;DHT22;315;48.738;9.126;2023-02-28T09:48:39;0.90;99.90
666;DHT22;315;48.738;9.126;2023-02-28T09:53:48;1.00;99.90
666;DHT22;315;48.738;9.126;2023-02-28T09:56:20;1.20;99.90
666;DHT22;315;48.738;9.126;2023-02-28T09:58:56;1.30;99.90
666;DHT22;315;48.738;9.126;2023-02-28T10:01:57;1.50;99.90
666;DHT22;315;48.738;9.126;2023-02-28T10:09:59;1.70;99.90
666;DHT22;315;48.738;9.126;2023-02-28T10:12:29;1.70;99.90
666;DHT22;315;48.738;9.126;2023-02-28T10:14:58;1.60;99.90
666;DHT22;315;48.738;9.126;2023-02-28T10:17:28;1.60;99.90
666;DHT22;315;48.738;9.126;2023-02-28T10:20:02;1.60;99.90
666;DHT22;315;48.738;9.126;2023-02-28T10:25:39;1.90;99.90
666;DHT22;315;48.738;9.126;2023-02-28T10:30:34;2.10;99.90
666;DHT22;315;48.738;9.126;2023-02-28T10:33:00;2.20;99.90
666;DHT22;315;48.738;9.126;2023-02-28T10:35:26;2.20;99.90
666;DHT22;315;48.738;9.126;2023-02-28T10:38:00;2.30;99.90
666;DHT22;315;48.738;9.126;2023-02-28T10:40:34;2.60;99.90
666;DHT22;315;48.738;9.126;2023-02-28T10:45:38;2.80;99.90
666;DHT22;315;48.738;9.126;2023-02-28T10:50:46;3.10;99.90
666;DHT22;315;48.738;9.126;2023-02-28T10:58:57;3.50;99.90
666;DHT22;315;48.738;9.126;2023-02-28T11:01:39;3.50;99.90
666;DHT22;315;48.738;9.126;2023-02-28T11:11:52;4.60;99.90
666;DHT22;315;48.738;9.126;2023-02-28T11:14:24;4.90;99.90
666;DHT22;315;48.738;9.126;2023-02-28T11:16:51;4.80;99.90
666;DHT22;315;48.738;9.126;2023-02-28T11:19:44;4.70;99.90
666;DHT22;315;48.738;9.126;2023-02-28T11:22:10;4.60;99.90
666;DHT22;315;48.738;9.126;2023-02-28T11:24:44;5.30;99.90
666;DHT22;315;48.738;9.126;2023-02-28T11:29:56;5.60;99.20
666;DHT22;315;48.738;9.126;2023-02-28T11:32:23;5.60;99.80
666;DHT22;315;48.738;9.126;2023-02-28T11:37:34;6.70;96.70
666;DHT22;315;48.738;9.126;2023-02-28T11:40:00;7.00;94.70
666;DHT22;315;48.738;9.126;2023-02-28T11:51:00;10.70;81.90
666;DHT22;315;48.738;9.126;2023-02-28T11:53:56;12.10;69.90
666;DHT22;315;48.738;9.126;2023-02-28T11:56:36;14.10;67.10
666;DHT22;315;48.738;9.126;2023-02-28T12:05:10;16.00;54.50
666;DHT22;315;48.738;9.126;2023-02-28T12:08:02;17.00;51.40
666;DHT22;315;48.738;9.126;2023-02-28T12:10:34;17.20;49.20
666;DHT22;315;48.738;9.126;2023-02-28T12:13:16;17.40;46.70
666;DHT22;315;48.738;9.126;2023-02-28T12:18:43;17.50;46.80
666;DHT22;315;48.738;9.126;2023-02-28T12:24:05;18.50;40.50
666;DHT22;315;48.738;9.126;2023-02-28T12:26:37;15.90;42.20
666;DHT22;315;48.738;9.126;2023-02-28T12:29:17;14.10;44.90
666;DHT22;315;48.738;9.126;2023-02-28T12:34:20;13.10;47.60
666;DHT22;315;48.738;9.126;2023-02-28T12:36:47;14.00;47.10
666;DHT22;315;48.738;9.126;2023-02-28T12:39:20;15.50;45.10
666;DHT22;315;48.738;9.126;2023-02-28T12:41:53;16.40;43.90
666;DHT22;315;48.738;9.126;2023-02-28T12:45:12;18.40;41.70
666;DHT22;315;48.738;9.126;2023-02-28T12:47:16;18.60;39.70
666;DHT22;315;48.738;9.126;2023-02-28T12:49:52;18.20;39.10
666;DHT22;315;48.738;9.126;2023-02-28T12:52:26;18.30;39.40
666;DHT22;315;48.738;9.126;2023-02-28T12:55:03;19.10;39.00
666;DHT22;315;48.738;9.126;2023-02-28T12:57:43;18.70;38.10
666;DHT22;315;48.738;9.126;2023-02-28T13:00:16;18.00;38.50
666;DHT22;315;48.738;9.126;2023-02-28T13:03:12;15.60;41.00
666;DHT22;315;48.738;9.126;2023-02-28T13:08:23;14.70;43.40
666;DHT22;315;48.738;9.126;2023-02-28T13:10:52;16.40;41.30
666;DHT22;315;48.738;9.126;2023-02-28T13:13:26;17.70;40.50
666;DHT22;315;48.738;9.126;2023-02-28T13:15:58;18.00;38.40
666;DHT22;315;48.738;9.126;2023-02-28T13:18:44;16.70;39.30
666;DHT22;315;48.738;9.126;2023-02-28T13:21:30;14.50;41.40
666;DHT22;315;48.738;9.126;2023-02-28T13:24:03;12.00;45.20
666;DHT22;315;48.738;9.126;2023-02-28T13:29:21;13.00;45.70
666;DHT22;315;48.738;9.126;2023-02-28T13:34:32;13.90;44.30
666;DHT22;315;48.738;9.126;2023-02-28T13:39:55;15.20;43.00
666;DHT22;315;48.738;9.126;2023-02-28T13:47:36;16.60;41.50
666;DHT22;315;48.738;9.126;2023-02-28T13:50:24;17.20;40.00
666;DHT22;315;48.738;9.126;2023-02-28T13:58:36;16.10;40.80
666;DHT22;315;48.738;9.126;2023-02-28T14:01:43;15.30;41.50
666;DHT22;315;48.738;9.126;2023-02-28T14:07:07;12.10;46.50
666;DHT22;315;48.738;9.126;2023-02-28T14:09:46;12.00;46.60
666;DHT22;315;48.738;9.126;2023-02-28T14:17:54;10.90;48.70
666;DHT22;315;48.738;9.126;2023-02-28T14:20:22;9.90;49.70
666;DHT22;315;48.738;9.126;2023-02-28T14:23:19;9.50;51.00
666;DHT22;315;48.738;9.126;2023-02-28T14:31:34;8.00;56.00
666;DHT22;315;48.738;9.126;2023-02-28T14:36:52;7.30;58.80
666;DHT22;315;48.738;9.126;2023-02-28T14:39:26;7.00;60.00
666;DHT22;315;48.738;9.126;2023-02-28T14:41:53;6.80;61.90
666;DHT22;315;48.738;9.126;2023-02-28T14:44:24;6.70;63.10
666;DHT22;315;48.738;9.126;2023-02-28T14:46:55;6.70;64.60
666;DHT22;315;48.738;9.126;2023-02-28T14:49:29;6.80;64.70
666;DHT22;315;48.738;9.126;2023-02-28T14:52:23;6.80;64.70
666;DHT22;315;48.738;9.126;2023-02-28T14:55:09;6.90;65.60
666;DHT22;315;48.738;9.126;2023-02-28T14:57:50;6.80;65.60
666;DHT22;315;48.738;9.126;2023-02-28T15:02:49;6.50;67.40
666;DHT22;315;48.738;9.126;2023-02-28T15:07:44;6.40;70.20
666;DHT22;315;48.738;9.126;2023-02-28T15:10:13;6.30;70.80
666;DHT22;315;48.738;9.126;2023-02-28T15:12:40;6.40;71.00
666;DHT22;315;48.738;9.126;2023-02-28T15:15:15;6.30;71.50
666;DHT22;315;48.738;9.126;2023-02-28T15:17:46;6.10;72.90
666;DHT22;315;48.738;9.126;2023-02-28T15:20:14;5.90;74.70
666;DHT22;315;48.738;9.126;2023-02-28T15:22:40;5.80;74.70
666;DHT22;315;48.738;9.126;2023-02-28T15:25:07;5.90;76.00
666;DHT22;315;48.738;9.126;2023-02-28T15:27:44;5.90;76.20
666;DHT22;315;48.738;9.126;2023-02-28T15:30:24;5.90;76.90
666;DHT22;315;48.738;9.126;2023-02-28T15:33:19;6.00;77.10
666;DHT22;315;48.738;9.126;2023-02-28T15:35:45;6.00;77.10
666;DHT22;315;48.738;9.126;2023-02-28T15:38:15;5.70;77.60
666;DHT22;315;48.738;9.126;2023-02-28T15:40:46;5.70;78.20
666;DHT22;315;48.738;9.126;2023-02-28T15:44:13;5.50;79.50
666;DHT22;315;48.738;9.126;2023-02-28T15:46:36;5.40;82.10
666;DHT22;315;48.738;9.126;2023-02-28T15:49:02;5.50;82.10
666;DHT22;315;48.738;9.126;2023-02-28T15:51:34;5.40;83.00
666;DHT22;315;48.738;9.126;2023-02-28T15:54:12;5.40;83.40
666;DHT22;315;48.738;9.126;2023-02-28T15:56:45;5.40;83.40
666;DHT22;315;48.738;9.126;2023-02-28T15:59:21;5.30;84.30
666;DHT22;315;48.738;9.126;2023-02-28T16:05:40;5.20;87.60
666;DHT22;315;48.738;9.126;2023-02-28T16:07:42;5.20;88.00
666;DHT22;315;48.738;9.126;2023-02-28T16:10:11;5.10;88.90
666;DHT22;315;48.738;9.126;2023-02-28T16:12:38;5.10;90.00
666;DHT22;315;48.738;9.126;2023-02-28T16:15:28;5.10;90.30
666;DHT22;315;48.738;9.126;2023-02-28T16:17:54;5.00;90.50
666;DHT22;315;48.738;9.126;2023-02-28T16:20:22;4.90;91.30
666;DHT22;315;48.738;9.126;2023-02-28T16:22:48;4.90;91.70
666;DHT22;315;48.738;9.126;2023-02-28T16:25:16;4.80;93.00
666;DHT22;315;48.738;9.126;2023-02-28T16:27:43;4.80;92.80
666;DHT22;315;48.738;9.126;2023-02-28T16:30:21;4.70;93.00
666;DHT22;315;48.738;9.126;2023-02-28T16:32:47;4.70;94.20
666;DHT22;315;48.738;9.126;2023-02-28T16:35:13;4.70;94.00
666;DHT22;315;48.738;9.126;2023-02-28T16:37:40;4.60;94.20
666;DHT22;315;48.738;9.126;2023-02-28T16:40:08;4.50;94.80
666;DHT22;315;48.738;9.126;2023-02-28T16:42:34;4.50;95.10
666;DHT22;315;48.738;9.126;2023-02-28T16:45:00;4.40;96.40
666;DHT22;315;48.738;9.126;2023-02-28T16:47:25;4.40;96.70
666;DHT22;315;48.738;9.126;2023-02-28T16:49:52;4.30;96.50
666;DHT22;315;48.738;9.126;2023-02-28T16:52:17;4.20;96.90
666;DHT22;315;48.738;9.126;2023-02-28T16:54:43;4.20;97.50
666;DHT22;315;48.738;9.126;2023-02-28T16:57:29;4.10;98.00
666;DHT22;315;48.738;9.126;2023-02-28T16:59:54;4.00;98.40
666;DHT22;315;48.738;9.126;2023-02-28T17:02:20;4.00;98.90
666;DHT22;315;48.738;9.126;2023-02-28T17:04:46;4.00;99.40
666;DHT22;315;48.738;9.126;2023-02-28T17:07:14;3.90;99.60
666;DHT22;315;48.738;9.126;2023-02-28T17:09:41;3.90;99.90
666;DHT22;315;48.738;9.126;2023-02-28T17:12:07;3.80;99.90
666;DHT22;315;48.738;9.126;2023-02-28T17:14:33;3.80;99.90
666;DHT22;315;48.738;9.126;2023-02-28T17:16:58;3.70;99.90
666;DHT22;315;48.738;9.126;2023-02-28T17:19:24;3.70;99.90
666;DHT22;315;48.738;9.126;2023-02-28T17:21:49;3.60;99.90
666;DHT22;315;48.738;9.126;2023-02-28T17:24:15;3.60;99.90
666;DHT22;315;48.738;9.126;2023-02-28T17:26:41;3.60;99.90
666;DHT22;315;48.738;9.126;2023-02-28T17:29:19;3.60;99.90
666;DHT22;315;48.738;9.126;2023-02-28T17:31:44;3.50;99.90
666;DHT22;315;48.738;9.126;2023-02-28T17:34:10;3.40;99.90
666;DHT22;315;48.738;9.126;2023-02-28T17:36:36;3.40;99.90
666;DHT22;315;48.738;9.126;2023-02-28T17:39:04;3.40;99.90
666;DHT22;315;48.738;9.126;2023-02-28T17:41:34;3.40;99.90
666;DHT22;315;48.738;9.126;2023-02-28T17:43:59;3.30;99.90
666;DHT22;315;48.738;9.126;2023-02-28T17:46:25;3.30;99.90
666;DHT22;315;48.738;9.126;2023-02-28T17:48:52;3.20;99.90
666;DHT22;315;48.738;9.126;2023-02-28T17:51:19;3.20;99.90
666;DHT22;315;48.738;9.126;2023-02-28T17:53:45;3.20;99.90
666;DHT22;315;48.738;9.126;2023-02-28T17:56:17;3.10;99.90
666;DHT22;315;48.738;9.126;2023-02-28T17:58:44;3.10;99.90
666;DHT22;315;48.738;9.126;2023-02-28T18:01:09;3.10;99.90
666;DHT22;315;48.738;9.126;2023-02-28T18:03:37;3.10;99.90
666;DHT22;315;48.738;9.126;2023-02-28T18:06:02;3.00;99.90
666;DHT22;315;48.738;9.126;2023-02-28T18:08:28;3.00;99.90
666;DHT22;315;48.738;9.126;2023-02-28T18:10:54;2.90;99.90
666;DHT22;315;48.738;9.126;2023-02-28T18:13:19;2.90;99.90
666;DHT22;315;48.738;9.126;2023-02-28T18:15:45;2.90;99.90
666;DHT22;315;48.738;9.126;2023-02-28T18:18:10;2.90;99.90
666;DHT22;315;48.738;9.126;2023-02-28T18:20:36;2.80;99.90
666;DHT22;315;48.738;9.126;2023-02-28T18:23:02;2.90;99.90
666;DHT22;315;48.738;9.126;2023-02-28T18:25:28;2.80;99.90
666;DHT22;315;48.738;9.126;2023-02-28T18:27:54;2.90;99.90
666;DHT22;315;48.738;9.126;2023-02-28T18:30:27;2.80;99.90
666;DHT22;315;48.738;9.126;2023-02-28T18:32:55;2.80;99.90
666;DHT22;315;48.738;9.126;2023-02-28T18:35:22;2.80;99.90
666;DHT22;315;48.738;9.126;2023-02-28T18:38:00;2.80;99.90
666;DHT22;315;48.738;9.126;2023-02-28T18:40:25;2.80;99.90
666;DHT22;315;48.738;9.126;2023-02-28T18:42:51;2.70;99.90
666;DHT22;315;48.738;9.126;2023-02-28T18:45:16;2.70;99.90
666;DHT22;315;48.738;9.126;2023-02-28T18:47:42;2.70;99.90
666;DHT22;315;48.738;9.126;2023-02-28T18:50:08;2.60;99.90
666;DHT22;315;48.738;9.126;2023-02-28T18:52:34;2.60;99.90
666;DHT22;315;48.738;9.126;2023-02-28T18:54:59;2.50;99.90
666;DHT22;315;48.738;9.126;2023-02-28T18:57:25;2.40;99.90
666;DHT22;315;48.738;9.126;2023-02-28T18:59:50;2.30;99.90
666;DHT22;315;48.738;9.126;2023-02-28T19:02:16;2.30;99.90
666;DHT22;315;48.738;9.126;2023-02-28T19:04:41;2.20;99.90
666;DHT22;315;48.738;9.126;2023-02-28T19:07:07;2.20;99.90
666;DHT22;315;48.738;9.126;2023-02-28T19:09:32;2.10;99.90
666;DHT22;315;48.738;9.126;2023-02-28T19:11:58;2.10;99.90
666;DHT22;315;48.738;9.126;2023-02-28T19:14:23;2.10;99.90
666;DHT22;315;48.738;9.126;2023-02-28T19:16:49;2.10;99.90